sensor_id;sensor_type;location;lat;lon;timestamp;temperature;humidity
31991;DHT22;18508;49.386;8.370;2023-01-08T00:01:11;9.90;99.90
31991;DHT22;18508;49.386;8.370;2023-01-08T00:03:39;9.90;99.90
31991;DHT22;18508;49.386;8.370;2023-01-08T00:06:10;9.90;99.90
31991;DHT22;18508;49.386;8.370;2023-01-08T00:08:38;9.90;99.90
31991;DHT22;18508;49.386;8.370;2023-01-08T00:11:07;9.90;99.90
31991;DHT22;18508;49.386;8.370;2023-01-08T00:13:36;9.90;99.90
31991;DHT22;18508;49.386;8.370;2023-01-08T00:16:05;9.90;99.90
31991;DHT22;18508;49.386;8.370;2023-01-08T00:18:35;9.90;99.90
31991;DHT22;18508;49.386;8.370;2023-01-08T00:21:04;9.90;99.90
31991;DHT22;18508;49.386;8.370;2023-01-08T00:23:33;9.90;99.90
31991;DHT22;18508;49.386;8.370;2023-01-08T00:26:02;9.90;99.90
31991;DHT22;18508;49.386;8.370;2023-01-08T00:28:30;9.90;99.90
31991;DHT22;18508;49.386;8.370;2023-01-08T00:30:58;9.90;99.90
31991;DHT22;18508;49.386;8.370;2023-01-08T00:33:29;9.90;99.90
31991;DHT22;18508;49.386;8.370;2023-01-08T00:36:00;9.90;99.90
31991;DHT22;18508;49.386;8.370;2023-01-08T00:38:28;9.90;99.90
31991;DHT22;18508;49.386;8.370;2023-01-08T00:40:56;9.90;99.90
31991;DHT22;18508;49.386;8.370;2023-01-08T00:43:25;9.90;99.90
31991;DHT22;18508;49.386;8.370;2023-01-08T00:45:53;9.90;99.90
31991;DHT22;18508;49.386;8.370;2023-01-08T00:48:22;9.90;99.90
31991;DHT22;18508;49.386;8.370;2023-01-08T00:50:51;9.90;99.90
31991;DHT22;18508;49.386;8.370;2023-01-08T00:53:22;9.80;99.90
31991;DHT22;18508;49.386;8.370;2023-01-08T00:55:57;9.80;99.90
31991;DHT22;18508;49.386;8.370;2023-01-08T00:58:25;9.90;99.90
31991;DHT22;18508;49.386;8.370;2023-01-08T01:00:53;9.90;99.90
31991;DHT22;18508;49.386;8.370;2023-01-08T01:03:22;9.90;99.90
31991;DHT22;18508;49.386;8.370;2023-01-08T01:05:59;9.90;99.90
31991;DHT22;18508;49.386;8.370;2023-01-08T01:08:28;10.00;99.90
31991;DHT22;18508;49.386;8.370;2023-01-08T01:10:57;10.00;99.90
31991;DHT22;18508;49.386;8.370;2023-01-08T01:13:25;10.00;99.90
31991;DHT22;18508;49.386;8.370;2023-01-08T01:15:57;10.00;99.90
31991;DHT22;18508;49.386;8.370;2023-01-08T01:18:25;10.00;99.90
31991;DHT22;18508;49.386;8.370;2023-01-08T01:20:54;10.00;99.90
31991;DHT22;18508;49.386;8.370;2023-01-08T01:23:22;10.00;99.90
31991;DHT22;18508;49.386;8.370;2023-01-08T01:25:54;9.90;99.90
31991;DHT22;18508;49.386;8.370;2023-01-08T01:28:22;10.00;99.90
31991;DHT22;18508;49.386;8.370;2023-01-08T01:30:54;9.90;99.90
31991;DHT22;18508;49.386;8.370;2023-01-08T01:33:23;9.90;99.90
31991;DHT22;18508;49.386;8.370;2023-01-08T01:35:59;9.90;99.90
31991;DHT22;18508;49.386;8.370;2023-01-08T01:38:27;9.90;99.90
31991;DHT22;18508;49.386;8.370;2023-01-08T01:41:02;9.90;99.90
31991;DHT22;18508;49.386;8.370;2023-01-08T01:43:35;9.80;99.90
31991;DHT22;18508;49.386;8.370;2023-01-08T01:46:05;9.80;99.90
31991;DHT22;18508;49.386;8.370;2023-01-08T01:48:41;9.80;99.90
31991;DHT22;18508;49.386;8.370;2023-01-08T01:51:10;9.70;99.90
31991;DHT22;18508;49.386;8.370;2023-01-08T01:53:39;9.60;99.90
31991;DHT22;18508;49.386;8.370;2023-01-08T01:56:09;9.50;99.90
31991;DHT22;18508;49.386;8.370;2023-01-08T01:58:37;9.50;99.90
31991;DHT22;18508;49.386;8.370;2023-01-08T02:01:07;9.40;99.90
31991;DHT22;18508;49.386;8.370;2023-01-08T02:03:37;9.40;99.90
31991;DHT22;18508;49.386;8.370;2023-01-08T02:06:15;9.40;99.90
31991;DHT22;18508;49.386;8.370;2023-01-08T02:08:53;9.30;99.90
31991;DHT22;18508;49.386;8.370;2023-01-08T02:11:28;9.40;99.90
31991;DHT22;18508;49.386;8.370;2023-01-08T02:14:07;9.70;99.90
31991;DHT22;18508;49.386;8.370;2023-01-08T02:16:45;9.30;99.90
31991;DHT22;18508;49.386;8.370;2023-01-08T02:19:23;9.20;99.90
31991;DHT22;18508;49.386;8.370;2023-01-08T02:22:08;9.10;99.90
31991;DHT22;18508;49.386;8.370;2023-01-08T02:24:45;9.10;99.90
31991;DHT22;18508;49.386;8.370;2023-01-08T02:27:23;9.10;99.90
31991;DHT22;18508;49.386;8.370;2023-01-08T02:30:02;9.10;99.90
31991;DHT22;18508;49.386;8.370;2023-01-08T02:32:33;9.10;99.90
31991;DHT22;18508;49.386;8.370;2023-01-08T02:35:07;9.10;99.90
31991;DHT22;18508;49.386;8.370;2023-01-08T02:37:36;9.10;99.90
31991;DHT22;18508;49.386;8.370;2023-01-08T02:40:17;9.10;99.90
31991;DHT22;18508;49.386;8.370;2023-01-08T02:42:54;9.10;99.90
31991;DHT22;18508;49.386;8.370;2023-01-08T02:45:34;9.10;99.90
31991;DHT22;18508;49.386;8.370;2023-01-08T02:48:09;9.10;99.90
31991;DHT22;18508;49.386;8.370;2023-01-08T02:50:42;9.10;99.90
31991;DHT22;18508;49.386;8.370;2023-01-08T02:53:17;9.10;99.90
31991;DHT22;18508;49.386;8.370;2023-01-08T02:55:50;9.10;99.90
31991;DHT22;18508;49.386;8.370;2023-01-08T02:58:22;9.10;99.90
31991;DHT22;18508;49.386;8.370;2023-01-08T03:00:52;8.90;99.90
31991;DHT22;18508;49.386;8.370;2023-01-08T03:03:23;9.10;99.90
31991;DHT22;18508;49.386;8.370;2023-01-08T03:05:55;9.00;99.90
31991;DHT22;18508;49.386;8.370;2023-01-08T03:08:24;9.00;99.90
31991;DHT22;18508;49.386;8.370;2023-01-08T03:11:02;9.00;99.90
31991;DHT22;18508;49.386;8.370;2023-01-08T03:13:39;9.00;99.90
31991;DHT22;18508;49.386;8.370;2023-01-08T03:16:14;9.00;99.90
31991;DHT22;18508;49.386;8.370;2023-01-08T03:18:48;9.00;99.90
31991;DHT22;18508;49.386;8.370;2023-01-08T03:21:20;9.00;99.90
31991;DHT22;18508;49.386;8.370;2023-01-08T03:23:50;9.00;99.90
31991;DHT22;18508;49.386;8.370;2023-01-08T03:26:20;8.90;99.90
31991;DHT22;18508;49.386;8.370;2023-01-08T03:28:54;8.90;99.90
31991;DHT22;18508;49.386;8.370;2023-01-08T03:31:24;8.90;99.90
31991;DHT22;18508;49.386;8.370;2023-01-08T03:33:55;8.90;99.90
31991;DHT22;18508;49.386;8.370;2023-01-08T03:36:27;8.90;99.90
31991;DHT22;18508;49.386;8.370;2023-01-08T03:39:00;8.60;99.90
31991;DHT22;18508;49.386;8.370;2023-01-08T03:41:31;9.00;99.90
31991;DHT22;18508;49.386;8.370;2023-01-08T03:44:05;8.90;99.90
31991;DHT22;18508;49.386;8.370;2023-01-08T03:46:38;9.00;99.90
31991;DHT22;18508;49.386;8.370;2023-01-08T03:49:09;8.90;99.90
31991;DHT22;18508;49.386;8.370;2023-01-08T03:51:41;9.00;99.90
31991;DHT22;18508;49.386;8.370;2023-01-08T03:54:12;8.90;99.90
31991;DHT22;18508;49.386;8.370;2023-01-08T03:56:41;8.90;99.90
31991;DHT22;18508;49.386;8.370;2023-01-08T03:59:14;8.90;99.90
31991;DHT22;18508;49.386;8.370;2023-01-08T04:01:43;8.90;99.90
31991;DHT22;18508;49.386;8.370;2023-01-08T04:04:11;8.80;99.90
31991;DHT22;18508;49.386;8.370;2023-01-08T04:06:39;8.80;99.90
31991;DHT22;18508;49.386;8.370;2023-01-08T04:09:08;8.80;99.90
31991;DHT22;18508;49.386;8.370;2023-01-08T04:11:36;8.80;99.90
31991;DHT22;18508;49.386;8.370;2023-01-08T04:14:07;8.80;99.90
31991;DHT22;18508;49.386;8.370;2023-01-08T04:16:39;8.80;99.90
31991;DHT22;18508;49.386;8.370;2023-01-08T04:19:09;8.70;99.90
31991;DHT22;18508;49.386;8.370;2023-01-08T04:21:37;8.70;99.90
31991;DHT22;18508;49.386;8.370;2023-01-08T04:24:06;8.70;99.90
31991;DHT22;18508;49.386;8.370;2023-01-08T04:26:35;8.60;99.90
31991;DHT22;18508;49.386;8.370;2023-01-08T04:29:04;8.60;99.90
31991;DHT22;18508;49.386;8.370;2023-01-08T04:31:32;8.60;99.90
31991;DHT22;18508;49.386;8.370;2023-01-08T04:34:02;8.50;99.90
31991;DHT22;18508;49.386;8.370;2023-01-08T04:36:31;8.40;99.90
31991;DHT22;18508;49.386;8.370;2023-01-08T04:38:59;8.40;99.90
31991;DHT22;18508;49.386;8.370;2023-01-08T04:41:27;8.40;99.90
31991;DHT22;18508;49.386;8.370;2023-01-08T04:43:55;8.40;99.90
31991;DHT22;18508;49.386;8.370;2023-01-08T04:46:24;8.40;99.90
31991;DHT22;18508;49.386;8.370;2023-01-08T04:48:53;8.40;99.90
31991;DHT22;18508;49.386;8.370;2023-01-08T04:51:23;8.50;99.90
31991;DHT22;18508;49.386;8.370;2023-01-08T04:53:52;8.50;99.90
31991;DHT22;18508;49.386;8.370;2023-01-08T04:56:20;8.50;99.90
31991;DHT22;18508;49.386;8.370;2023-01-08T04:58:49;8.50;99.90
31991;DHT22;18508;49.386;8.370;2023-01-08T05:01:20;8.50;99.90
31991;DHT22;18508;49.386;8.370;2023-01-08T05:03:52;8.40;99.90
31991;DHT22;18508;49.386;8.370;2023-01-08T05:06:23;8.40;99.90
31991;DHT22;18508;49.386;8.370;2023-01-08T05:08:51;8.40;99.90
31991;DHT22;18508;49.386;8.370;2023-01-08T05:11:22;8.40;99.90
31991;DHT22;18508;49.386;8.370;2023-01-08T05:13:51;8.30;99.90
31991;DHT22;18508;49.386;8.370;2023-01-08T05:16:19;8.30;99.90
31991;DHT22;18508;49.386;8.370;2023-01-08T05:18:49;8.30;99.90
31991;DHT22;18508;49.386;8.370;2023-01-08T05:21:19;8.30;99.90
31991;DHT22;18508;49.386;8.370;2023-01-08T05:23:49;8.30;99.90
31991;DHT22;18508;49.386;8.370;2023-01-08T05:26:20;8.30;99.90
31991;DHT22;18508;49.386;8.370;2023-01-08T05:28:48;8.20;99.90
31991;DHT22;18508;49.386;8.370;2023-01-08T05:31:16;8.20;99.90
31991;DHT22;18508;49.386;8.370;2023-01-08T05:33:44;8.20;99.90
31991;DHT22;18508;49.386;8.370;2023-01-08T05:36:14;8.20;99.90
31991;DHT22;18508;49.386;8.370;2023-01-08T05:38:43;8.10;99.90
31991;DHT22;18508;49.386;8.370;2023-01-08T05:41:12;8.10;99.90
31991;DHT22;18508;49.386;8.370;2023-01-08T05:43:42;8.10;99.90
31991;DHT22;18508;49.386;8.370;2023-01-08T05:46:10;8.10;99.90
31991;DHT22;18508;49.386;8.370;2023-01-08T05:48:39;8.10;99.90
31991;DHT22;18508;49.386;8.370;2023-01-08T05:51:09;8.10;99.90
31991;DHT22;18508;49.386;8.370;2023-01-08T05:53:37;8.00;99.90
31991;DHT22;18508;49.386;8.370;2023-01-08T05:56:09;8.10;99.90
31991;DHT22;18508;49.386;8.370;2023-01-08T05:58:39;8.00;99.90
31991;DHT22;18508;49.386;8.370;2023-01-08T06:01:11;8.00;99.90
31991;DHT22;18508;49.386;8.370;2023-01-08T06:03:42;8.10;99.90
31991;DHT22;18508;49.386;8.370;2023-01-08T06:06:11;8.10;99.90
31991;DHT22;18508;49.386;8.370;2023-01-08T06:08:39;8.00;99.90
31991;DHT22;18508;49.386;8.370;2023-01-08T06:11:09;8.00;99.90
31991;DHT22;18508;49.386;8.370;2023-01-08T06:13:42;8.10;99.90
31991;DHT22;18508;49.386;8.370;2023-01-08T06:16:12;8.10;99.90
31991;DHT22;18508;49.386;8.370;2023-01-08T06:18:40;8.10;99.90
31991;DHT22;18508;49.386;8.370;2023-01-08T06:21:09;8.10;99.90
31991;DHT22;18508;49.386;8.370;2023-01-08T06:23:39;8.10;99.90
31991;DHT22;18508;49.386;8.370;2023-01-08T06:26:07;8.10;99.90
31991;DHT22;18508;49.386;8.370;2023-01-08T06:28:35;8.20;99.90
31991;DHT22;18508;49.386;8.370;2023-01-08T06:31:06;8.20;99.90
31991;DHT22;18508;49.386;8.370;2023-01-08T06:33:34;8.20;99.90
31991;DHT22;18508;49.386;8.370;2023-01-08T06:36:03;8.20;99.90
31991;DHT22;18508;49.386;8.370;2023-01-08T06:38:32;8.30;99.90
31991;DHT22;18508;49.386;8.370;2023-01-08T06:41:02;8.30;99.90
31991;DHT22;18508;49.386;8.370;2023-01-08T06:43:31;8.30;99.90
31991;DHT22;18508;49.386;8.370;2023-01-08T06:46:03;8.30;99.90
31991;DHT22;18508;49.386;8.370;2023-01-08T06:48:33;8.40;99.90
31991;DHT22;18508;49.386;8.370;2023-01-08T06:51:03;8.30;99.90
31991;DHT22;18508;49.386;8.370;2023-01-08T06:53:34;8.40;99.90
31991;DHT22;18508;49.386;8.370;2023-01-08T06:56:02;8.40;99.90
31991;DHT22;18508;49.386;8.370;2023-01-08T06:58:33;8.40;99.90
31991;DHT22;18508;49.386;8.370;2023-01-08T07:01:01;8.40;99.90
31991;DHT22;18508;49.386;8.370;2023-01-08T07:03:29;8.40;99.90
31991;DHT22;18508;49.386;8.370;2023-01-08T07:06:01;8.40;99.90
31991;DHT22;18508;49.386;8.370;2023-01-08T07:08:29;8.40;99.90
31991;DHT22;18508;49.386;8.370;2023-01-08T07:11:01;8.40;99.90
31991;DHT22;18508;49.386;8.370;2023-01-08T07:13:31;8.40;99.90
31991;DHT22;18508;49.386;8.370;2023-01-08T07:16:05;8.40;99.90
31991;DHT22;18508;49.386;8.370;2023-01-08T07:18:35;8.40;99.90
31991;DHT22;18508;49.386;8.370;2023-01-08T07:21:06;8.40;99.90
31991;DHT22;18508;49.386;8.370;2023-01-08T07:23:36;8.40;99.90
31991;DHT22;18508;49.386;8.370;2023-01-08T07:26:06;8.40;99.90
31991;DHT22;18508;49.386;8.370;2023-01-08T07:28:35;8.40;99.90
31991;DHT22;18508;49.386;8.370;2023-01-08T07:31:04;8.40;99.90
31991;DHT22;18508;49.386;8.370;2023-01-08T07:33:33;8.40;99.90
31991;DHT22;18508;49.386;8.370;2023-01-08T07:36:05;8.40;99.90
31991;DHT22;18508;49.386;8.370;2023-01-08T07:38:35;8.30;99.90
31991;DHT22;18508;49.386;8.370;2023-01-08T07:41:03;8.40;99.90
31991;DHT22;18508;49.386;8.370;2023-01-08T07:43:31;8.40;99.90
31991;DHT22;18508;49.386;8.370;2023-01-08T07:46:01;8.40;99.90
31991;DHT22;18508;49.386;8.370;2023-01-08T07:48:30;8.40;99.90
31991;DHT22;18508;49.386;8.370;2023-01-08T07:51:02;8.50;99.90
31991;DHT22;18508;49.386;8.370;2023-01-08T07:53:32;8.40;99.90
31991;DHT22;18508;49.386;8.370;2023-01-08T07:56:01;8.40;99.90
31991;DHT22;18508;49.386;8.370;2023-01-08T07:58:30;8.40;99.90
31991;DHT22;18508;49.386;8.370;2023-01-08T08:00:59;8.40;99.90
31991;DHT22;18508;49.386;8.370;2023-01-08T08:03:27;8.40;99.90
31991;DHT22;18508;49.386;8.370;2023-01-08T08:05:55;8.40;99.90
31991;DHT22;18508;49.386;8.370;2023-01-08T08:08:25;8.40;99.90
31991;DHT22;18508;49.386;8.370;2023-01-08T08:10:55;8.40;99.90
31991;DHT22;18508;49.386;8.370;2023-01-08T08:13:23;8.40;99.90
31991;DHT22;18508;49.386;8.370;2023-01-08T08:15:51;8.40;99.90
31991;DHT22;18508;49.386;8.370;2023-01-08T08:18:20;8.40;99.90
31991;DHT22;18508;49.386;8.370;2023-01-08T08:20:48;8.40;99.90
31991;DHT22;18508;49.386;8.370;2023-01-08T08:23:17;8.40;99.90
31991;DHT22;18508;49.386;8.370;2023-01-08T08:25:45;8.40;99.90
31991;DHT22;18508;49.386;8.370;2023-01-08T08:28:15;8.50;99.90
31991;DHT22;18508;49.386;8.370;2023-01-08T08:30:43;8.50;99.90
31991;DHT22;18508;49.386;8.370;2023-01-08T08:33:13;8.50;99.90
31991;DHT22;18508;49.386;8.370;2023-01-08T08:35:47;8.40;99.90
31991;DHT22;18508;49.386;8.370;2023-01-08T08:38:16;8.40;99.90
31991;DHT22;18508;49.386;8.370;2023-01-08T08:40:44;8.40;99.90
31991;DHT22;18508;49.386;8.370;2023-01-08T08:43:12;8.50;99.90
31991;DHT22;18508;49.386;8.370;2023-01-08T08:45:42;8.50;99.90
31991;DHT22;18508;49.386;8.370;2023-01-08T08:48:10;8.50;99.90
31991;DHT22;18508;49.386;8.370;2023-01-08T08:50:39;8.50;99.90
31991;DHT22;18508;49.386;8.370;2023-01-08T08:53:08;8.50;99.90
31991;DHT22;18508;49.386;8.370;2023-01-08T08:55:36;8.50;99.90
31991;DHT22;18508;49.386;8.370;2023-01-08T08:58:06;8.60;99.90
31991;DHT22;18508;49.386;8.370;2023-01-08T09:00:37;8.60;99.90
31991;DHT22;18508;49.386;8.370;2023-01-08T09:03:10;8.50;99.90
31991;DHT22;18508;49.386;8.370;2023-01-08T09:05:39;8.60;99.90
31991;DHT22;18508;49.386;8.370;2023-01-08T09:08:09;8.60;99.90
31991;DHT22;18508;49.386;8.370;2023-01-08T09:10:38;8.60;99.90
31991;DHT22;18508;49.386;8.370;2023-01-08T09:13:08;8.60;99.90
31991;DHT22;18508;49.386;8.370;2023-01-08T09:15:36;8.60;99.90
31991;DHT22;18508;49.386;8.370;2023-01-08T09:18:06;8.70;99.90
31991;DHT22;18508;49.386;8.370;2023-01-08T09:20:34;8.70;99.90
31991;DHT22;18508;49.386;8.370;2023-01-08T09:23:04;8.80;99.90
31991;DHT22;18508;49.386;8.370;2023-01-08T09:25:34;8.80;99.90
31991;DHT22;18508;49.386;8.370;2023-01-08T09:28:03;8.80;99.90
31991;DHT22;18508;49.386;8.370;2023-01-08T09:30:37;8.90;99.90
31991;DHT22;18508;49.386;8.370;2023-01-08T09:33:07;8.90;99.90
31991;DHT22;18508;49.386;8.370;2023-01-08T09:35:36;9.00;99.90
31991;DHT22;18508;49.386;8.370;2023-01-08T09:38:07;9.00;99.90
31991;DHT22;18508;49.386;8.370;2023-01-08T09:40:38;9.10;99.90
31991;DHT22;18508;49.386;8.370;2023-01-08T09:43:16;9.10;99.90
31991;DHT22;18508;49.386;8.370;2023-01-08T09:45:50;9.10;99.90
31991;DHT22;18508;49.386;8.370;2023-01-08T09:48:28;9.20;99.90
31991;DHT22;18508;49.386;8.370;2023-01-08T09:50:58;9.20;99.90
31991;DHT22;18508;49.386;8.370;2023-01-08T09:53:27;9.30;99.90
31991;DHT22;18508;49.386;8.370;2023-01-08T09:55:58;9.20;99.90
31991;DHT22;18508;49.386;8.370;2023-01-08T09:58:38;9.20;99.90
31991;DHT22;18508;49.386;8.370;2023-01-08T10:01:10;9.20;99.90
31991;DHT22;18508;49.386;8.370;2023-01-08T10:03:42;9.30;99.90
31991;DHT22;18508;49.386;8.370;2023-01-08T10:06:12;9.40;99.90
31991;DHT22;18508;49.386;8.370;2023-01-08T10:08:40;9.40;99.90
31991;DHT22;18508;49.386;8.370;2023-01-08T10:11:15;9.40;99.90
31991;DHT22;18508;49.386;8.370;2023-01-08T10:13:48;9.50;99.90
31991;DHT22;18508;49.386;8.370;2023-01-08T10:16:34;9.70;99.90
31991;DHT22;18508;49.386;8.370;2023-01-08T10:19:07;9.60;99.90
31991;DHT22;18508;49.386;8.370;2023-01-08T10:21:39;9.60;99.90
31991;DHT22;18508;49.386;8.370;2023-01-08T10:24:08;9.70;99.90
31991;DHT22;18508;49.386;8.370;2023-01-08T10:26:37;9.70;99.90
31991;DHT22;18508;49.386;8.370;2023-01-08T10:29:08;9.60;99.90
31991;DHT22;18508;49.386;8.370;2023-01-08T10:31:54;9.60;99.90
31991;DHT22;18508;49.386;8.370;2023-01-08T10:34:27;9.70;99.90
31991;DHT22;18508;49.386;8.370;2023-01-08T10:36:59;9.70;99.90
31991;DHT22;18508;49.386;8.370;2023-01-08T10:39:29;9.70;99.90
31991;DHT22;18508;49.386;8.370;2023-01-08T10:42:04;9.80;99.90
31991;DHT22;18508;49.386;8.370;2023-01-08T10:44:33;9.80;99.90
31991;DHT22;18508;49.386;8.370;2023-01-08T10:47:03;9.90;99.90
31991;DHT22;18508;49.386;8.370;2023-01-08T10:49:37;9.80;99.90
31991;DHT22;18508;49.386;8.370;2023-01-08T10:52:22;9.80;99.90
31991;DHT22;18508;49.386;8.370;2023-01-08T10:54:51;9.80;99.90
31991;DHT22;18508;49.386;8.370;2023-01-08T10:57:22;9.80;99.90
31991;DHT22;18508;49.386;8.370;2023-01-08T10:59:51;9.90;99.90
31991;DHT22;18508;49.386;8.370;2023-01-08T11:02:32;10.00;99.90
31991;DHT22;18508;49.386;8.370;2023-01-08T11:05:07;10.20;99.90
31991;DHT22;18508;49.386;8.370;2023-01-08T11:07:37;10.40;99.90
31991;DHT22;18508;49.386;8.370;2023-01-08T11:10:20;10.60;99.90
31991;DHT22;18508;49.386;8.370;2023-01-08T11:12:54;10.60;99.90
31991;DHT22;18508;49.386;8.370;2023-01-08T11:15:29;10.70;99.90
31991;DHT22;18508;49.386;8.370;2023-01-08T11:18:15;10.70;99.90
31991;DHT22;18508;49.386;8.370;2023-01-08T11:20:48;10.70;99.90
31991;DHT22;18508;49.386;8.370;2023-01-08T11:23:20;10.90;99.90
31991;DHT22;18508;49.386;8.370;2023-01-08T11:25:55;10.80;99.90
31991;DHT22;18508;49.386;8.370;2023-01-08T11:28:39;11.10;99.90
31991;DHT22;18508;49.386;8.370;2023-01-08T11:31:14;11.10;99.90
31991;DHT22;18508;49.386;8.370;2023-01-08T11:33:52;11.20;99.90
31991;DHT22;18508;49.386;8.370;2023-01-08T11:36:31;11.10;99.90
31991;DHT22;18508;49.386;8.370;2023-01-08T11:39:01;11.00;99.90
31991;DHT22;18508;49.386;8.370;2023-01-08T11:41:43;11.00;99.90
31991;DHT22;18508;49.386;8.370;2023-01-08T11:44:28;11.40;99.90
31991;DHT22;18508;49.386;8.370;2023-01-08T11:47:06;11.30;99.90
31991;DHT22;18508;49.386;8.370;2023-01-08T11:49:53;11.80;99.90
31991;DHT22;18508;49.386;8.370;2023-01-08T11:52:40;11.70;99.90
31991;DHT22;18508;49.386;8.370;2023-01-08T11:55:23;11.70;99.90
31991;DHT22;18508;49.386;8.370;2023-01-08T11:58:04;11.80;99.90
31991;DHT22;18508;49.386;8.370;2023-01-08T12:00:58;11.70;99.90
31991;DHT22;18508;49.386;8.370;2023-01-08T12:03:41;11.80;99.90
31991;DHT22;18508;49.386;8.370;2023-01-08T12:06:21;11.80;99.90
31991;DHT22;18508;49.386;8.370;2023-01-08T12:09:03;11.80;99.90
31991;DHT22;18508;49.386;8.370;2023-01-08T12:11:39;11.60;99.90
31991;DHT22;18508;49.386;8.370;2023-01-08T12:14:31;11.70;99.90
31991;DHT22;18508;49.386;8.370;2023-01-08T12:17:15;11.70;99.90
31991;DHT22;18508;49.386;8.370;2023-01-08T12:19:58;11.80;99.90
31991;DHT22;18508;49.386;8.370;2023-01-08T12:22:41;11.90;99.90
31991;DHT22;18508;49.386;8.370;2023-01-08T12:25:36;11.90;99.90
31991;DHT22;18508;49.386;8.370;2023-01-08T12:28:30;11.90;99.90
31991;DHT22;18508;49.386;8.370;2023-01-08T12:31:16;11.80;99.90
31991;DHT22;18508;49.386;8.370;2023-01-08T12:33:53;11.70;99.90
31991;DHT22;18508;49.386;8.370;2023-01-08T12:36:28;11.70;99.90
31991;DHT22;18508;49.386;8.370;2023-01-08T12:39:02;11.70;99.90
31991;DHT22;18508;49.386;8.370;2023-01-08T12:41:34;11.60;99.90
31991;DHT22;18508;49.386;8.370;2023-01-08T12:44:04;11.60;99.90
31991;DHT22;18508;49.386;8.370;2023-01-08T12:46:37;11.30;99.90
31991;DHT22;18508;49.386;8.370;2023-01-08T12:49:06;11.30;99.90
31991;DHT22;18508;49.386;8.370;2023-01-08T12:51:37;11.30;99.90
31991;DHT22;18508;49.386;8.370;2023-01-08T12:54:10;11.40;99.90
31991;DHT22;18508;49.386;8.370;2023-01-08T12:56:49;11.40;99.90
31991;DHT22;18508;49.386;8.370;2023-01-08T12:59:30;11.20;99.90
31991;DHT22;18508;49.386;8.370;2023-01-08T13:02:04;11.20;99.90
31991;DHT22;18508;49.386;8.370;2023-01-08T13:04:40;11.40;99.90
31991;DHT22;18508;49.386;8.370;2023-01-08T13:07:18;11.10;99.90
31991;DHT22;18508;49.386;8.370;2023-01-08T13:09:54;11.10;99.90
31991;DHT22;18508;49.386;8.370;2023-01-08T13:12:32;11.20;99.90
31991;DHT22;18508;49.386;8.370;2023-01-08T13:15:01;11.30;99.90
31991;DHT22;18508;49.386;8.370;2023-01-08T13:17:32;11.00;99.90
31991;DHT22;18508;49.386;8.370;2023-01-08T13:20:02;11.00;99.90
31991;DHT22;18508;49.386;8.370;2023-01-08T13:22:32;11.00;99.90
31991;DHT22;18508;49.386;8.370;2023-01-08T13:25:10;10.90;99.90
31991;DHT22;18508;49.386;8.370;2023-01-08T13:27:55;10.80;99.90
31991;DHT22;18508;49.386;8.370;2023-01-08T13:30:47;10.90;99.90
31991;DHT22;18508;49.386;8.370;2023-01-08T13:33:34;11.00;99.90
31991;DHT22;18508;49.386;8.370;2023-01-08T13:36:14;11.00;99.90
31991;DHT22;18508;49.386;8.370;2023-01-08T13:38:43;11.10;99.90
31991;DHT22;18508;49.386;8.370;2023-01-08T13:41:25;11.10;99.90
31991;DHT22;18508;49.386;8.370;2023-01-08T13:43:59;11.20;99.90
31991;DHT22;18508;49.386;8.370;2023-01-08T13:46:28;11.20;99.90
31991;DHT22;18508;49.386;8.370;2023-01-08T13:49:00;11.20;99.90
31991;DHT22;18508;49.386;8.370;2023-01-08T13:51:37;11.20;99.90
31991;DHT22;18508;49.386;8.370;2023-01-08T13:54:29;11.30;99.90
31991;DHT22;18508;49.386;8.370;2023-01-08T13:57:04;11.20;99.90
31991;DHT22;18508;49.386;8.370;2023-01-08T13:59:37;11.30;99.90
31991;DHT22;18508;49.386;8.370;2023-01-08T14:02:27;11.30;99.90
31991;DHT22;18508;49.386;8.370;2023-01-08T14:04:58;11.10;99.90
31991;DHT22;18508;49.386;8.370;2023-01-08T14:07:27;11.10;99.90
31991;DHT22;18508;49.386;8.370;2023-01-08T14:10:06;11.00;99.90
31991;DHT22;18508;49.386;8.370;2023-01-08T14:12:35;10.90;99.90
31991;DHT22;18508;49.386;8.370;2023-01-08T14:15:07;10.90;99.90
31991;DHT22;18508;49.386;8.370;2023-01-08T14:17:37;10.90;99.90
31991;DHT22;18508;49.386;8.370;2023-01-08T14:20:08;10.70;99.90
31991;DHT22;18508;49.386;8.370;2023-01-08T14:22:38;10.70;99.90
31991;DHT22;18508;49.386;8.370;2023-01-08T14:25:16;10.70;99.90
31991;DHT22;18508;49.386;8.370;2023-01-08T14:27:55;10.80;99.90
31991;DHT22;18508;49.386;8.370;2023-01-08T14:30:25;10.80;99.90
31991;DHT22;18508;49.386;8.370;2023-01-08T14:32:54;10.80;99.90
31991;DHT22;18508;49.386;8.370;2023-01-08T14:35:28;10.80;99.90
31991;DHT22;18508;49.386;8.370;2023-01-08T14:37:59;10.80;99.90
31991;DHT22;18508;49.386;8.370;2023-01-08T14:40:30;10.80;99.90
31991;DHT22;18508;49.386;8.370;2023-01-08T14:43:06;10.80;99.90
31991;DHT22;18508;49.386;8.370;2023-01-08T14:45:37;10.70;99.90
31991;DHT22;18508;49.386;8.370;2023-01-08T14:48:14;10.70;99.90
31991;DHT22;18508;49.386;8.370;2023-01-08T14:50:55;10.80;99.90
31991;DHT22;18508;49.386;8.370;2023-01-08T14:53:28;10.70;99.90
31991;DHT22;18508;49.386;8.370;2023-01-08T14:55:59;10.70;99.90
31991;DHT22;18508;49.386;8.370;2023-01-08T14:58:33;10.70;99.90
31991;DHT22;18508;49.386;8.370;2023-01-08T15:01:05;10.60;99.90
31991;DHT22;18508;49.386;8.370;2023-01-08T15:03:37;10.50;99.90
31991;DHT22;18508;49.386;8.370;2023-01-08T15:06:06;10.40;99.90
31991;DHT22;18508;49.386;8.370;2023-01-08T15:08:38;10.40;99.90
31991;DHT22;18508;49.386;8.370;2023-01-08T15:11:18;10.40;99.90
31991;DHT22;18508;49.386;8.370;2023-01-08T15:13:49;10.30;99.90
31991;DHT22;18508;49.386;8.370;2023-01-08T15:16:25;10.20;99.90
31991;DHT22;18508;49.386;8.370;2023-01-08T15:19:00;10.20;99.90
31991;DHT22;18508;49.386;8.370;2023-01-08T15:21:29;10.10;99.90
31991;DHT22;18508;49.386;8.370;2023-01-08T15:23:59;10.10;99.90
31991;DHT22;18508;49.386;8.370;2023-01-08T15:26:28;10.00;99.90
31991;DHT22;18508;49.386;8.370;2023-01-08T15:28:58;9.90;99.90
31991;DHT22;18508;49.386;8.370;2023-01-08T15:31:30;9.90;99.90
31991;DHT22;18508;49.386;8.370;2023-01-08T15:34:00;9.90;99.90
31991;DHT22;18508;49.386;8.370;2023-01-08T15:36:28;9.80;99.90
31991;DHT22;18508;49.386;8.370;2023-01-08T15:38:56;9.70;99.90
31991;DHT22;18508;49.386;8.370;2023-01-08T15:41:24;9.70;99.90
31991;DHT22;18508;49.386;8.370;2023-01-08T15:44:10;9.70;99.90
31991;DHT22;18508;49.386;8.370;2023-01-08T15:46:40;9.70;99.90
31991;DHT22;18508;49.386;8.370;2023-01-08T15:49:09;9.70;99.90
31991;DHT22;18508;49.386;8.370;2023-01-08T15:51:41;9.70;99.90
31991;DHT22;18508;49.386;8.370;2023-01-08T15:54:11;9.70;99.90
31991;DHT22;18508;49.386;8.370;2023-01-08T15:56:40;9.70;99.90
31991;DHT22;18508;49.386;8.370;2023-01-08T15:59:08;9.80;99.90
31991;DHT22;18508;49.386;8.370;2023-01-08T16:01:37;9.80;99.90
31991;DHT22;18508;49.386;8.370;2023-01-08T16:04:07;9.80;99.90
31991;DHT22;18508;49.386;8.370;2023-01-08T16:06:35;9.80;99.90
31991;DHT22;18508;49.386;8.370;2023-01-08T16:09:03;9.80;99.90
31991;DHT22;18508;49.386;8.370;2023-01-08T16:11:31;9.90;99.90
31991;DHT22;18508;49.386;8.370;2023-01-08T16:14:00;9.90;99.90